HEMA

Marsa Alam International Airport

Marsa Alam, Egypt
METAR HEMA 251300Z 34018KT CAVOK 35/17 Q1007 NOSIG
Observed Flight Rules
Sep-25 @ 13:00 UTC (2 hours ago) Visual Flight Rules
Wind Visibility Clouds
340° at 18 knots 10,000+ meters
  • Clear skies
Temperatures Readings
Current 35°C / 95°F
Dewpoint 17°C / 63°F
Humidity 34%
Altimeter 29.73" Hg
Pressure 1007 hPa
Elevation 77
METAR HEMA 251300Z 34018KT CAVOK 35/17 Q1007 NOSIG
Observed Flight Rules
Sep-25 @ 13:00 UTC
(2 hours ago)
VFR
Wind Visibility
340° at 18 knots 10,000+ meters
Clouds
  • Clear skies
Temperature Dewpoint
35°C / 95°F 17°C / 63°F
Humidity Altimeter Pressure
34% 29.73" Hg 1007 hPa